White Star — ZCNP2 — position and weather

sailwx.info

Track history (hours):
 
Tides and Currents Weather Stations Pressure Air Temp Water Temp Dewpoint Dewpoint Depression Visibility Wind Speed Wind Dir Waves Ship Positions

White Star

Last reported at 2014-Sep-01 17:29 UTC. Time now 2014-Sep-02 21:34 UTC.
Position N 43°53' E 008°01'.

Length 45 m.

Type: Pleasure craft. MMSI: 319035000.

Date/timePositionNaut miles runAvg speedWind from/ knotsBaromVisibWave heightAir tempDewpointWater temp
2014-Sep-01 17:29N 43°53' E 008°01'0 0.0
2014-Sep-01 16:17N 43°53' E 008°01'0 0.0
2014-Aug-30 20:33N 43°53' E 008°01'0 0.0
2014-Aug-30 19:33N 43°53' E 008°01'0 0.0
2014-Aug-30 18:33N 43°53' E 008°01'0 0.0
2014-Aug-30 17:33N 43°53' E 008°01'0 0.0
2014-Aug-30 16:33N 43°53' E 008°01'0 0.0
2014-Aug-30 10:32N 43°53' E 008°01'0 0.0
2014-Aug-30 09:32N 43°53' E 008°01'0 0.0
2014-Aug-30 08:30N 43°53' E 008°01'0 0.0
2014-Aug-30 07:23N 43°53' E 008°01'0 0.0
2014-Aug-30 06:33N 43°53' E 008°01'0 0.0
2014-Aug-30 05:33N 43°53' E 008°01'0 0.0
2014-Aug-30 04:33N 43°53' E 008°01'0 0.0
2014-Aug-30 03:31N 43°53' E 008°01'0 0.0
2014-Aug-30 00:24N 43°53' E 008°01'0 0.0
2014-Aug-29 23:31N 43°53' E 008°01'0 0.0
2014-Aug-29 20:29N 43°53' E 008°01'0 0.0
2014-Aug-29 18:26N 43°53' E 008°01'0 0.0
2014-Aug-29 17:33N 43°53' E 008°01'0 0.0
2014-Aug-29 16:33N 43°53' E 008°01'0 0.0
2014-Aug-28 19:26N 43°53' E 008°01'0 0.0
2014-Aug-28 18:32N 43°53' E 008°01'0 0.0
2014-Aug-28 16:32N 43°53' E 008°01'0 0.0
2014-Aug-28 15:24N 43°53' E 008°01'0 0.0
2014-Aug-28 14:33N 43°53' E 008°01'0 0.0
2014-Aug-28 09:06N 43°53' E 008°01'0 0.0
2014-Aug-28 08:17N 43°53' E 008°01'26 0.6
2014-Aug-26 11:28N 43°39' E 007°31'1314.2
2014-Aug-26 10:33N 43°34' E 007°15'10 9.5
2014-Aug-26 09:33N 43°32' E 007°02'0 0.0
2014-Aug-26 08:30N 43°32' E 007°02'0 0.0
2014-Aug-26 07:33N 43°32' E 007°02'0 0.0
2014-Aug-26 06:31N 43°32' E 007°02'0 0.0
2014-Aug-26 05:33N 43°32' E 007°02'0 0.0
2014-Aug-26 04:33N 43°32' E 007°02'0 0.0
2014-Aug-26 03:33N 43°32' E 007°02'0 0.0
2014-Aug-26 02:33N 43°32' E 007°02'0 0.0
2014-Aug-26 01:33N 43°32' E 007°02'0 0.0
2014-Aug-26 00:32N 43°32' E 007°02'0 0.0
2014-Aug-25 23:33N 43°32' E 007°02'0 0.0
2014-Aug-25 22:33N 43°32' E 007°02'0 0.0
2014-Aug-25 21:33N 43°32' E 007°02'0 0.0
2014-Aug-25 19:32N 43°32' E 007°02'0 0.0
2014-Aug-25 18:28N 43°32' E 007°02'0 0.0
2014-Aug-25 17:28N 43°32' E 007°02'0 0.0
2014-Aug-25 16:29N 43°32' E 007°02'0 0.0
2014-Aug-25 15:33N 43°32' E 007°02'0 0.0
2014-Aug-25 14:30N 43°32' E 007°02'0 0.0
2014-Aug-25 13:33N 43°32' E 007°02'0 0.0
2014-Aug-25 12:32N 43°32' E 007°02'0 0.0
2014-Aug-25 11:32N 43°32' E 007°02'0 0.0
2014-Aug-25 10:28N 43°32' E 007°02'0 0.0
2014-Aug-25 09:33N 43°32' E 007°02'0 0.0
2014-Aug-25 08:33N 43°32' E 007°02'0 0.0
2014-Aug-25 07:33N 43°32' E 007°02'0 0.0
2014-Aug-25 06:27N 43°32' E 007°02'0 0.0
2014-Aug-25 05:33N 43°32' E 007°02'0 0.2
2014-Aug-25 04:33N 43°32' E 007°01'1514.7
2014-Aug-25 03:33N 43°21' E 006°48'9 9.2
2014-Aug-25 02:33N 43°16' E 006°37'0 0.0
2014-Aug-25 01:21N 43°16' E 006°37'0 0.0
2014-Aug-25 00:33N 43°16' E 006°37'0 0.0
2014-Aug-24 23:30N 43°16' E 006°37'0 0.0
2014-Aug-24 22:33N 43°16' E 006°37'0 0.0
2014-Aug-24 21:32N 43°16' E 006°37'0 0.0
2014-Aug-24 20:32N 43°16' E 006°37'0 0.0
2014-Aug-24 19:33N 43°16' E 006°37'0 0.0
2014-Aug-24 18:30N 43°16' E 006°37'0 0.0
2014-Aug-24 17:26N 43°16' E 006°37'0 0.0
2014-Aug-24 16:29N 43°16' E 006°37'0 0.0
2014-Aug-24 15:33N 43°16' E 006°37'0 0.0
2014-Aug-24 14:33N 43°16' E 006°37'0 0.0
2014-Aug-24 13:33N 43°16' E 006°37'0 0.0
2014-Aug-24 12:31N 43°16' E 006°37'0 0.0
2014-Aug-24 11:32N 43°16' E 006°37'0 0.0
2014-Aug-24 10:29N 43°16' E 006°37'0 0.0
2014-Aug-24 09:33N 43°16' E 006°37'0 0.0
2014-Aug-24 08:33N 43°16' E 006°37'0 0.0
2014-Aug-24 07:33N 43°16' E 006°37'0 0.0
2014-Aug-24 06:26N 43°16' E 006°37'0 0.0
2014-Aug-24 05:33N 43°16' E 006°37'0 0.0
2014-Aug-24 04:33N 43°16' E 006°37'0 0.0
2014-Aug-24 03:33N 43°16' E 006°37'0 0.0
2014-Aug-24 02:33N 43°16' E 006°37'0 0.0
2014-Aug-24 01:33N 43°16' E 006°37'0 0.0
2014-Aug-24 00:32N 43°16' E 006°37'0 0.0
2014-Aug-23 23:33N 43°16' E 006°37'0 0.0
2014-Aug-23 22:33N 43°16' E 006°37'0 0.0
2014-Aug-23 21:33N 43°16' E 006°37'0 0.0
2014-Aug-23 20:32N 43°16' E 006°37'0 0.0
2014-Aug-23 19:33N 43°16' E 006°37'0 0.0
2014-Aug-23 03:33N 43°16' E 006°37'0 0.0
2014-Aug-23 02:12N 43°16' E 006°37'0 0.0
2014-Aug-23 01:33N 43°16' E 006°37'0 0.0
2014-Aug-23 00:32N 43°16' E 006°37'0 0.0
2014-Aug-22 23:32N 43°16' E 006°37'0 0.0
2014-Aug-22 22:32N 43°16' E 006°37'0 0.0
2014-Aug-22 21:31N 43°16' E 006°37'0 0.0
2014-Aug-22 20:31N 43°16' E 006°37'0 0.0
2014-Aug-22 19:33N 43°16' E 006°37'0 0.0
2014-Aug-22 18:33N 43°16' E 006°37'0 0.0
2014-Aug-22 17:33N 43°16' E 006°37'  
Track history (hours):
 
Tides and Currents Weather Stations Pressure Air Temp Water Temp Dewpoint Dewpoint Depression Visibility Wind Speed Wind Dir Waves Ship Positions

White Star

Last reported at 2014-Sep-01 17:29 UTC. Time now 2014-Sep-02 21:34 UTC.
Position N 43°53' E 008°01'.

Length 45 m.

Type: Pleasure craft. MMSI: 319035000.

Date/timePositionNaut miles runAvg speedWind from/ knotsBaromVisibWave heightAir tempDewpointWater temp
2014-Sep-01 17:29N 43°53' E 008°01'0 0.0
2014-Sep-01 16:17N 43°53' E 008°01'0 0.0
2014-Aug-30 20:33N 43°53' E 008°01'0 0.0
2014-Aug-30 19:33N 43°53' E 008°01'0 0.0
2014-Aug-30 18:33N 43°53' E 008°01'0 0.0
2014-Aug-30 17:33N 43°53' E 008°01'0 0.0
2014-Aug-30 16:33N 43°53' E 008°01'0 0.0
2014-Aug-30 10:32N 43°53' E 008°01'0 0.0
2014-Aug-30 09:32N 43°53' E 008°01'0 0.0
2014-Aug-30 08:30N 43°53' E 008°01'0 0.0
2014-Aug-30 07:23N 43°53' E 008°01'0 0.0
2014-Aug-30 06:33N 43°53' E 008°01'0 0.0
2014-Aug-30 05:33N 43°53' E 008°01'0 0.0
2014-Aug-30 04:33N 43°53' E 008°01'0 0.0
2014-Aug-30 03:31N 43°53' E 008°01'0 0.0
2014-Aug-30 00:24N 43°53' E 008°01'0 0.0
2014-Aug-29 23:31N 43°53' E 008°01'0 0.0
2014-Aug-29 20:29N 43°53' E 008°01'0 0.0
2014-Aug-29 18:26N 43°53' E 008°01'0 0.0
2014-Aug-29 17:33N 43°53' E 008°01'0 0.0
2014-Aug-29 16:33N 43°53' E 008°01'0 0.0
2014-Aug-28 19:26N 43°53' E 008°01'0 0.0
2014-Aug-28 18:32N 43°53' E 008°01'0 0.0
2014-Aug-28 16:32N 43°53' E 008°01'0 0.0
2014-Aug-28 15:24N 43°53' E 008°01'0 0.0
2014-Aug-28 14:33N 43°53' E 008°01'0 0.0
2014-Aug-28 09:06N 43°53' E 008°01'0 0.0
2014-Aug-28 08:17N 43°53' E 008°01'26 0.6
2014-Aug-26 11:28N 43°39' E 007°31'1314.2
2014-Aug-26 10:33N 43°34' E 007°15'10 9.5
2014-Aug-26 09:33N 43°32' E 007°02'0 0.0
2014-Aug-26 08:30N 43°32' E 007°02'0 0.0
2014-Aug-26 07:33N 43°32' E 007°02'0 0.0
2014-Aug-26 06:31N 43°32' E 007°02'0 0.0
2014-Aug-26 05:33N 43°32' E 007°02'0 0.0
2014-Aug-26 04:33N 43°32' E 007°02'0 0.0
2014-Aug-26 03:33N 43°32' E 007°02'0 0.0
2014-Aug-26 02:33N 43°32' E 007°02'0 0.0
2014-Aug-26 01:33N 43°32' E 007°02'0 0.0
2014-Aug-26 00:32N 43°32' E 007°02'0 0.0
2014-Aug-25 23:33N 43°32' E 007°02'0 0.0
2014-Aug-25 22:33N 43°32' E 007°02'0 0.0
2014-Aug-25 21:33N 43°32' E 007°02'0 0.0
2014-Aug-25 19:32N 43°32' E 007°02'0 0.0
2014-Aug-25 18:28N 43°32' E 007°02'0 0.0
2014-Aug-25 17:28N 43°32' E 007°02'0 0.0
2014-Aug-25 16:29N 43°32' E 007°02'0 0.0
2014-Aug-25 15:33N 43°32' E 007°02'0 0.0
2014-Aug-25 14:30N 43°32' E 007°02'0 0.0
2014-Aug-25 13:33N 43°32' E 007°02'0 0.0
2014-Aug-25 12:32N 43°32' E 007°02'0 0.0
2014-Aug-25 11:32N 43°32' E 007°02'0 0.0
2014-Aug-25 10:28N 43°32' E 007°02'0 0.0
2014-Aug-25 09:33N 43°32' E 007°02'0 0.0
2014-Aug-25 08:33N 43°32' E 007°02'0 0.0
2014-Aug-25 07:33N 43°32' E 007°02'0 0.0
2014-Aug-25 06:27N 43°32' E 007°02'0 0.0
2014-Aug-25 05:33N 43°32' E 007°02'0 0.2
2014-Aug-25 04:33N 43°32' E 007°01'1514.7
2014-Aug-25 03:33N 43°21' E 006°48'9 9.2
2014-Aug-25 02:33N 43°16' E 006°37'0 0.0
2014-Aug-25 01:21N 43°16' E 006°37'0 0.0
2014-Aug-25 00:33N 43°16' E 006°37'0 0.0
2014-Aug-24 23:30N 43°16' E 006°37'0 0.0
2014-Aug-24 22:33N 43°16' E 006°37'0 0.0
2014-Aug-24 21:32N 43°16' E 006°37'0 0.0
2014-Aug-24 20:32N 43°16' E 006°37'0 0.0
2014-Aug-24 19:33N 43°16' E 006°37'0 0.0
2014-Aug-24 18:30N 43°16' E 006°37'0 0.0
2014-Aug-24 17:26N 43°16' E 006°37'0 0.0
2014-Aug-24 16:29N 43°16' E 006°37'0 0.0
2014-Aug-24 15:33N 43°16' E 006°37'0 0.0
2014-Aug-24 14:33N 43°16' E 006°37'0 0.0
2014-Aug-24 13:33N 43°16' E 006°37'0 0.0
2014-Aug-24 12:31N 43°16' E 006°37'0 0.0
2014-Aug-24 11:32N 43°16' E 006°37'0 0.0
2014-Aug-24 10:29N 43°16' E 006°37'0 0.0
2014-Aug-24 09:33N 43°16' E 006°37'0 0.0
2014-Aug-24 08:33N 43°16' E 006°37'0 0.0
2014-Aug-24 07:33N 43°16' E 006°37'0 0.0
2014-Aug-24 06:26N 43°16' E 006°37'0 0.0
2014-Aug-24 05:33N 43°16' E 006°37'0 0.0
2014-Aug-24 04:33N 43°16' E 006°37'0 0.0
2014-Aug-24 03:33N 43°16' E 006°37'0 0.0
2014-Aug-24 02:33N 43°16' E 006°37'0 0.0
2014-Aug-24 01:33N 43°16' E 006°37'0 0.0
2014-Aug-24 00:32N 43°16' E 006°37'0 0.0
2014-Aug-23 23:33N 43°16' E 006°37'0 0.0
2014-Aug-23 22:33N 43°16' E 006°37'0 0.0
2014-Aug-23 21:33N 43°16' E 006°37'0 0.0
2014-Aug-23 20:32N 43°16' E 006°37'0 0.0
2014-Aug-23 19:33N 43°16' E 006°37'0 0.0
2014-Aug-23 03:33N 43°16' E 006°37'0 0.0
2014-Aug-23 02:12N 43°16' E 006°37'0 0.0
2014-Aug-23 01:33N 43°16' E 006°37'0 0.0
2014-Aug-23 00:32N 43°16' E 006°37'0 0.0
2014-Aug-22 23:32N 43°16' E 006°37'0 0.0
2014-Aug-22 22:32N 43°16' E 006°37'0 0.0
2014-Aug-22 21:31N 43°16' E 006°37'0 0.0
2014-Aug-22 20:31N 43°16' E 006°37'0 0.0
2014-Aug-22 19:33N 43°16' E 006°37'0 0.0
2014-Aug-22 18:33N 43°16' E 006°37'0 0.0
2014-Aug-22 17:33N 43°16' E 006°37'  

Dump ship's entire track history